sensor_id;sensor_type;location;lat;lon;timestamp;temperature;humidity
18690;DHT22;9782;52.930;15.562;2023-03-21T06:03:49;9.00;1.00
18690;DHT22;9782;52.930;15.562;2023-03-21T06:06:16;9.10;1.00
18690;DHT22;9782;52.930;15.562;2023-03-21T06:08:43;9.20;1.00
18690;DHT22;9782;52.930;15.562;2023-03-21T06:11:19;9.20;1.00
18690;DHT22;9782;52.930;15.562;2023-03-21T06:13:48;9.30;1.00
18690;DHT22;9782;52.930;15.562;2023-03-21T06:16:14;9.30;1.00
18690;DHT22;9782;52.930;15.562;2023-03-21T06:18:41;9.30;1.00
18690;DHT22;9782;52.930;15.562;2023-03-21T06:21:09;9.40;1.00
18690;DHT22;9782;52.930;15.562;2023-03-21T06:23:36;9.40;1.00
18690;DHT22;9782;52.930;15.562;2023-03-21T06:26:04;9.50;99.90
18690;DHT22;9782;52.930;15.562;2023-03-21T06:28:31;9.50;99.90
18690;DHT22;9782;52.930;15.562;2023-03-21T06:30:58;9.60;99.90
18690;DHT22;9782;52.930;15.562;2023-03-21T06:33:25;9.60;99.90
18690;DHT22;9782;52.930;15.562;2023-03-21T06:35:52;9.60;99.90
18690;DHT22;9782;52.930;15.562;2023-03-21T06:38:21;9.70;99.90
18690;DHT22;9782;52.930;15.562;2023-03-21T06:40:48;9.70;99.90
18690;DHT22;9782;52.930;15.562;2023-03-21T06:43:15;9.70;99.90
18690;DHT22;9782;52.930;15.562;2023-03-21T06:45:43;9.60;99.90
18690;DHT22;9782;52.930;15.562;2023-03-21T06:48:09;9.60;99.90
18690;DHT22;9782;52.930;15.562;2023-03-21T06:50:36;9.70;99.90
18690;DHT22;9782;52.930;15.562;2023-03-21T06:53:03;9.70;99.90
18690;DHT22;9782;52.930;15.562;2023-03-21T06:55:31;9.70;99.90
18690;DHT22;9782;52.930;15.562;2023-03-21T06:57:58;9.70;99.90
18690;DHT22;9782;52.930;15.562;2023-03-21T07:00:25;9.70;99.90
18690;DHT22;9782;52.930;15.562;2023-03-21T07:02:52;9.70;99.90
18690;DHT22;9782;52.930;15.562;2023-03-21T07:05:19;9.80;99.90
18690;DHT22;9782;52.930;15.562;2023-03-21T07:07:46;9.80;99.90
18690;DHT22;9782;52.930;15.562;2023-03-21T07:10:13;9.80;99.90
18690;DHT22;9782;52.930;15.562;2023-03-21T07:12:41;9.80;93.30
18690;DHT22;9782;52.930;15.562;2023-03-21T07:15:09;9.80;91.30
18690;DHT22;9782;52.930;15.562;2023-03-21T07:17:36;9.80;99.90
18690;DHT22;9782;52.930;15.562;2023-03-21T07:20:03;9.80;99.90
18690;DHT22;9782;52.930;15.562;2023-03-21T07:22:33;9.90;99.90
18690;DHT22;9782;52.930;15.562;2023-03-21T07:25:00;9.90;28.80
18690;DHT22;9782;52.930;15.562;2023-03-21T07:27:27;9.90;84.00
18690;DHT22;9782;52.930;15.562;2023-03-21T07:29:55;9.90;66.90
18690;DHT22;9782;52.930;15.562;2023-03-21T07:32:22;9.90;7.10
18690;DHT22;9782;52.930;15.562;2023-03-21T07:34:48;9.90;1.00
18690;DHT22;9782;52.930;15.562;2023-03-21T07:37:15;10.00;16.20
18690;DHT22;9782;52.930;15.562;2023-03-21T07:39:42;10.00;39.10
18690;DHT22;9782;52.930;15.562;2023-03-21T07:42:09;10.00;15.00
18690;DHT22;9782;52.930;15.562;2023-03-21T07:44:37;10.00;1.00
18690;DHT22;9782;52.930;15.562;2023-03-21T07:47:05;10.00;1.00
18690;DHT22;9782;52.930;15.562;2023-03-21T07:49:32;10.00;1.00
18690;DHT22;9782;52.930;15.562;2023-03-21T07:51:59;9.90;1.00
18690;DHT22;9782;52.930;15.562;2023-03-21T07:54:26;9.90;1.00
18690;DHT22;9782;52.930;15.562;2023-03-21T07:56:54;9.90;1.00
18690;DHT22;9782;52.930;15.562;2023-03-21T07:59:21;9.90;1.00
18690;DHT22;9782;52.930;15.562;2023-03-21T08:01:47;10.00;1.00
18690;DHT22;9782;52.930;15.562;2023-03-21T08:04:16;10.00;1.00
18690;DHT22;9782;52.930;15.562;2023-03-21T08:06:43;10.00;1.00
18690;DHT22;9782;52.930;15.562;2023-03-21T08:09:10;10.10;1.00
18690;DHT22;9782;52.930;15.562;2023-03-21T08:11:36;10.10;1.00
18690;DHT22;9782;52.930;15.562;2023-03-21T08:14:03;10.10;1.00
18690;DHT22;9782;52.930;15.562;2023-03-21T08:16:30;10.20;1.00
18690;DHT22;9782;52.930;15.562;2023-03-21T08:18:57;10.30;1.00
18690;DHT22;9782;52.930;15.562;2023-03-21T08:21:25;10.30;1.00
18690;DHT22;9782;52.930;15.562;2023-03-21T08:23:52;10.40;1.00
18690;DHT22;9782;52.930;15.562;2023-03-21T08:26:19;10.40;1.00
18690;DHT22;9782;52.930;15.562;2023-03-21T08:28:49;10.50;1.00
18690;DHT22;9782;52.930;15.562;2023-03-21T08:31:16;10.60;1.00
18690;DHT22;9782;52.930;15.562;2023-03-21T08:33:45;10.80;1.00
18690;DHT22;9782;52.930;15.562;2023-03-21T08:36:12;10.90;99.90
18690;DHT22;9782;52.930;15.562;2023-03-21T08:38:40;11.00;99.90
18690;DHT22;9782;52.930;15.562;2023-03-21T08:41:06;11.20;99.90
18690;DHT22;9782;52.930;15.562;2023-03-21T08:43:33;11.30;1.00
18690;DHT22;9782;52.930;15.562;2023-03-21T08:46:00;11.40;1.00
18690;DHT22;9782;52.930;15.562;2023-03-21T08:48:28;11.50;1.00
18690;DHT22;9782;52.930;15.562;2023-03-21T08:50:55;11.60;1.00
18690;DHT22;9782;52.930;15.562;2023-03-21T08:53:22;11.70;1.00
18690;DHT22;9782;52.930;15.562;2023-03-21T08:55:50;11.80;1.00
18690;DHT22;9782;52.930;15.562;2023-03-21T08:58:17;11.70;99.90
18690;DHT22;9782;52.930;15.562;2023-03-21T09:00:44;11.80;99.90
18690;DHT22;9782;52.930;15.562;2023-03-21T09:03:10;11.90;99.90
18690;DHT22;9782;52.930;15.562;2023-03-21T09:05:37;11.90;99.90
18690;DHT22;9782;52.930;15.562;2023-03-21T09:08:05;11.90;99.90
18690;DHT22;9782;52.930;15.562;2023-03-21T09:10:32;11.80;64.30
18690;DHT22;9782;52.930;15.562;2023-03-21T09:13:01;11.80;18.60
18690;DHT22;9782;52.930;15.562;2023-03-21T09:15:27;11.80;10.20
18690;DHT22;9782;52.930;15.562;2023-03-21T09:17:55;11.70;27.50
18690;DHT22;9782;52.930;15.562;2023-03-21T09:20:25;11.70;15.40
18690;DHT22;9782;52.930;15.562;2023-03-21T09:22:55;11.60;56.30
18690;DHT22;9782;52.930;15.562;2023-03-21T09:25:22;11.70;99.90
18690;DHT22;9782;52.930;15.562;2023-03-21T09:27:49;11.80;99.90
18690;DHT22;9782;52.930;15.562;2023-03-21T09:30:19;12.00;7.50
18690;DHT22;9782;52.930;15.562;2023-03-21T09:32:47;12.00;99.90
18690;DHT22;9782;52.930;15.562;2023-03-21T09:35:15;12.10;1.00
18690;DHT22;9782;52.930;15.562;2023-03-21T09:37:43;12.20;1.00
18690;DHT22;9782;52.930;15.562;2023-03-21T09:40:15;12.30;1.00
18690;DHT22;9782;52.930;15.562;2023-03-21T09:42:51;12.60;1.00
18690;DHT22;9782;52.930;15.562;2023-03-21T09:45:30;12.90;1.00
18690;DHT22;9782;52.930;15.562;2023-03-21T09:47:59;13.20;99.90
18690;DHT22;9782;52.930;15.562;2023-03-21T09:50:29;13.50;99.90
18690;DHT22;9782;52.930;15.562;2023-03-21T09:52:59;13.80;5.40
18690;DHT22;9782;52.930;15.562;2023-03-21T09:55:30;14.00;1.00
18690;DHT22;9782;52.930;15.562;2023-03-21T09:58:03;14.30;1.00
18690;DHT22;9782;52.930;15.562;2023-03-21T10:00:35;14.50;1.00
18690;DHT22;9782;52.930;15.562;2023-03-21T10:03:05;14.70;99.90
18690;DHT22;9782;52.930;15.562;2023-03-21T10:05:37;14.90;99.90
18690;DHT22;9782;52.930;15.562;2023-03-21T10:08:13;15.10;99.90
18690;DHT22;9782;52.930;15.562;2023-03-21T10:10:45;15.30;99.90
18690;DHT22;9782;52.930;15.562;2023-03-21T10:13:16;15.40;99.90
18690;DHT22;9782;52.930;15.562;2023-03-21T10:15:44;15.40;99.90
18690;DHT22;9782;52.930;15.562;2023-03-21T10:18:15;15.50;99.90
18690;DHT22;9782;52.930;15.562;2023-03-21T10:20:45;15.70;99.90
18690;DHT22;9782;52.930;15.562;2023-03-21T10:23:13;15.90;44.60
18690;DHT22;9782;52.930;15.562;2023-03-21T10:25:43;16.10;1.00
18690;DHT22;9782;52.930;15.562;2023-03-21T10:28:15;16.20;1.00
18690;DHT22;9782;52.930;15.562;2023-03-21T10:30:45;16.30;1.00
18690;DHT22;9782;52.930;15.562;2023-03-21T10:33:16;16.30;1.00
18690;DHT22;9782;52.930;15.562;2023-03-21T10:35:48;16.30;1.00
18690;DHT22;9782;52.930;15.562;2023-03-21T10:38:17;16.40;1.00
18690;DHT22;9782;52.930;15.562;2023-03-21T10:40:45;16.50;1.00
18690;DHT22;9782;52.930;15.562;2023-03-21T10:43:18;16.60;1.00
18690;DHT22;9782;52.930;15.562;2023-03-21T10:45:47;16.50;1.00
18690;DHT22;9782;52.930;15.562;2023-03-21T10:48:14;16.60;1.00
18690;DHT22;9782;52.930;15.562;2023-03-21T10:50:42;16.60;1.00
18690;DHT22;9782;52.930;15.562;2023-03-21T10:53:16;16.70;1.00
18690;DHT22;9782;52.930;15.562;2023-03-21T10:55:45;16.60;1.00
18690;DHT22;9782;52.930;15.562;2023-03-21T10:58:15;16.50;1.00
18690;DHT22;9782;52.930;15.562;2023-03-21T11:00:44;16.50;1.00
18690;DHT22;9782;52.930;15.562;2023-03-21T11:03:21;16.50;1.00
18690;DHT22;9782;52.930;15.562;2023-03-21T11:05:52;16.30;1.00
18690;DHT22;9782;52.930;15.562;2023-03-21T11:08:21;16.30;1.00
18690;DHT22;9782;52.930;15.562;2023-03-21T11:10:52;16.20;1.00
18690;DHT22;9782;52.930;15.562;2023-03-21T11:13:24;16.00;1.00
18690;DHT22;9782;52.930;15.562;2023-03-21T11:15:53;15.80;1.00
18690;DHT22;9782;52.930;15.562;2023-03-21T11:18:23;15.70;1.00
18690;DHT22;9782;52.930;15.562;2023-03-21T11:20:52;15.50;1.00
18690;DHT22;9782;52.930;15.562;2023-03-21T11:23:20;15.30;1.00
18690;DHT22;9782;52.930;15.562;2023-03-21T11:25:48;15.10;1.00
18690;DHT22;9782;52.930;15.562;2023-03-21T11:28:18;14.90;1.00
18690;DHT22;9782;52.930;15.562;2023-03-21T11:30:51;14.60;1.00
18690;DHT22;9782;52.930;15.562;2023-03-21T11:33:22;14.30;1.00
18690;DHT22;9782;52.930;15.562;2023-03-21T11:36:00;14.10;1.00
18690;DHT22;9782;52.930;15.562;2023-03-21T11:38:30;13.90;1.00
18690;DHT22;9782;52.930;15.562;2023-03-21T11:40:59;13.70;1.00
18690;DHT22;9782;52.930;15.562;2023-03-21T11:43:29;13.60;1.00
18690;DHT22;9782;52.930;15.562;2023-03-21T11:45:59;13.60;1.00
18690;DHT22;9782;52.930;15.562;2023-03-21T11:48:28;13.60;1.00
18690;DHT22;9782;52.930;15.562;2023-03-21T11:50:59;13.60;1.00
18690;DHT22;9782;52.930;15.562;2023-03-21T11:53:36;13.60;17.30
18690;DHT22;9782;52.930;15.562;2023-03-21T11:56:18;13.70;88.20
18690;DHT22;9782;52.930;15.562;2023-03-21T11:58:58;13.90;67.40
18690;DHT22;9782;52.930;15.562;2023-03-21T12:01:32;14.10;48.00
18690;DHT22;9782;52.930;15.562;2023-03-21T12:04:12;14.40;2.80
18690;DHT22;9782;52.930;15.562;2023-03-21T12:06:47;14.60;1.00
18690;DHT22;9782;52.930;15.562;2023-03-21T12:09:27;14.80;1.00
18690;DHT22;9782;52.930;15.562;2023-03-21T12:12:02;14.90;1.00
18690;DHT22;9782;52.930;15.562;2023-03-21T12:14:38;14.80;1.00
18690;DHT22;9782;52.930;15.562;2023-03-21T12:17:18;14.70;1.00
18690;DHT22;9782;52.930;15.562;2023-03-21T12:20:06;14.70;1.00
18690;DHT22;9782;52.930;15.562;2023-03-21T12:22:48;14.70;1.00
18690;DHT22;9782;52.930;15.562;2023-03-21T12:25:23;14.70;1.00
18690;DHT22;9782;52.930;15.562;2023-03-21T12:27:59;14.80;1.00
18690;DHT22;9782;52.930;15.562;2023-03-21T12:30:43;14.90;1.00
18690;DHT22;9782;52.930;15.562;2023-03-21T12:33:24;15.20;1.00
18690;DHT22;9782;52.930;15.562;2023-03-21T12:36:04;15.40;1.00
18690;DHT22;9782;52.930;15.562;2023-03-21T12:38:40;15.50;1.00
18690;DHT22;9782;52.930;15.562;2023-03-21T12:41:21;15.70;1.00
18690;DHT22;9782;52.930;15.562;2023-03-21T12:43:51;15.80;1.00
18690;DHT22;9782;52.930;15.562;2023-03-21T12:46:23;16.00;1.00
18690;DHT22;9782;52.930;15.562;2023-03-21T12:48:56;16.00;1.00
18690;DHT22;9782;52.930;15.562;2023-03-21T12:51:28;16.10;1.00
18690;DHT22;9782;52.930;15.562;2023-03-21T12:54:01;16.10;1.00
18690;DHT22;9782;52.930;15.562;2023-03-21T12:56:33;16.10;1.00
18690;DHT22;9782;52.930;15.562;2023-03-21T12:59:07;16.00;1.00
18690;DHT22;9782;52.930;15.562;2023-03-21T13:01:39;16.00;1.00
18690;DHT22;9782;52.930;15.562;2023-03-21T13:04:20;16.00;1.00
18690;DHT22;9782;52.930;15.562;2023-03-21T13:06:55;16.10;1.00
18690;DHT22;9782;52.930;15.562;2023-03-21T13:09:28;16.10;1.00
18690;DHT22;9782;52.930;15.562;2023-03-21T13:11:56;16.10;1.00
18690;DHT22;9782;52.930;15.562;2023-03-21T13:14:27;16.00;1.00
18690;DHT22;9782;52.930;15.562;2023-03-21T13:17:02;15.90;1.00
18690;DHT22;9782;52.930;15.562;2023-03-21T13:19:33;15.70;1.00
18690;DHT22;9782;52.930;15.562;2023-03-21T13:22:07;15.60;1.00
18690;DHT22;9782;52.930;15.562;2023-03-21T13:24:41;15.40;1.00
18690;DHT22;9782;52.930;15.562;2023-03-21T13:27:18;15.10;1.00
18690;DHT22;9782;52.930;15.562;2023-03-21T13:29:50;14.90;1.00
18690;DHT22;9782;52.930;15.562;2023-03-21T13:32:23;14.80;1.00
18690;DHT22;9782;52.930;15.562;2023-03-21T13:34:54;14.60;1.00
18690;DHT22;9782;52.930;15.562;2023-03-21T13:37:25;14.50;1.00
18690;DHT22;9782;52.930;15.562;2023-03-21T13:39:59;14.40;1.00
18690;DHT22;9782;52.930;15.562;2023-03-21T13:42:31;14.20;1.00
18690;DHT22;9782;52.930;15.562;2023-03-21T13:45:00;14.10;1.00
18690;DHT22;9782;52.930;15.562;2023-03-21T13:47:34;13.90;1.00
18690;DHT22;9782;52.930;15.562;2023-03-21T13:50:20;13.80;1.00
18690;DHT22;9782;52.930;15.562;2023-03-21T13:53:20;13.70;1.00
18690;DHT22;9782;52.930;15.562;2023-03-21T13:55:58;13.70;1.00
18690;DHT22;9782;52.930;15.562;2023-03-21T13:58:32;13.60;1.00
18690;DHT22;9782;52.930;15.562;2023-03-21T14:01:21;13.60;1.00
18690;DHT22;9782;52.930;15.562;2023-03-21T14:03:57;13.50;1.00
18690;DHT22;9782;52.930;15.562;2023-03-21T14:06:31;13.40;1.00
18690;DHT22;9782;52.930;15.562;2023-03-21T14:09:01;13.40;1.00
18690;DHT22;9782;52.930;15.562;2023-03-21T14:11:30;13.40;1.00
18690;DHT22;9782;52.930;15.562;2023-03-21T14:13:59;13.50;1.00
18690;DHT22;9782;52.930;15.562;2023-03-21T14:16:26;13.50;1.00
18690;DHT22;9782;52.930;15.562;2023-03-21T14:18:55;13.60;1.00
18690;DHT22;9782;52.930;15.562;2023-03-21T14:21:23;13.60;1.00
18690;DHT22;9782;52.930;15.562;2023-03-21T14:24:00;13.50;1.00
18690;DHT22;9782;52.930;15.562;2023-03-21T14:26:29;13.50;1.00
18690;DHT22;9782;52.930;15.562;2023-03-21T14:28:57;13.40;1.00
18690;DHT22;9782;52.930;15.562;2023-03-21T14:31:25;13.30;1.00
18690;DHT22;9782;52.930;15.562;2023-03-21T14:33:55;13.30;1.00
18690;DHT22;9782;52.930;15.562;2023-03-21T14:36:25;13.30;1.00
18690;DHT22;9782;52.930;15.562;2023-03-21T14:38:55;13.30;1.00
18690;DHT22;9782;52.930;15.562;2023-03-21T14:41:26;13.40;1.00
18690;DHT22;9782;52.930;15.562;2023-03-21T14:44:11;13.30;1.00
18690;DHT22;9782;52.930;15.562;2023-03-21T14:46:39;13.40;1.00
18690;DHT22;9782;52.930;15.562;2023-03-21T14:49:12;13.40;1.00
18690;DHT22;9782;52.930;15.562;2023-03-21T14:51:39;13.40;1.00
18690;DHT22;9782;52.930;15.562;2023-03-21T14:54:10;13.40;1.00
18690;DHT22;9782;52.930;15.562;2023-03-21T14:56:39;13.40;1.00
18690;DHT22;9782;52.930;15.562;2023-03-21T14:59:10;13.40;1.00
18690;DHT22;9782;52.930;15.562;2023-03-21T15:01:38;13.30;1.00
18690;DHT22;9782;52.930;15.562;2023-03-21T15:04:05;13.10;1.00
18690;DHT22;9782;52.930;15.562;2023-03-21T15:06:32;13.10;1.00
18690;DHT22;9782;52.930;15.562;2023-03-21T15:09:02;13.00;1.00
18690;DHT22;9782;52.930;15.562;2023-03-21T15:11:31;12.90;1.00
18690;DHT22;9782;52.930;15.562;2023-03-21T15:14:01;12.90;1.00
18690;DHT22;9782;52.930;15.562;2023-03-21T15:16:30;12.80;1.00
18690;DHT22;9782;52.930;15.562;2023-03-21T15:18:57;12.80;1.00
18690;DHT22;9782;52.930;15.562;2023-03-21T15:21:27;12.80;1.00
18690;DHT22;9782;52.930;15.562;2023-03-21T15:23:57;12.90;1.00
18690;DHT22;9782;52.930;15.562;2023-03-21T15:26:25;12.90;1.00
18690;DHT22;9782;52.930;15.562;2023-03-21T15:28:55;12.90;1.00
18690;DHT22;9782;52.930;15.562;2023-03-21T15:31:28;13.00;1.00
18690;DHT22;9782;52.930;15.562;2023-03-21T15:33:55;13.00;1.00
18690;DHT22;9782;52.930;15.562;2023-03-21T15:36:25;13.00;1.00
18690;DHT22;9782;52.930;15.562;2023-03-21T15:38:53;13.00;1.00
18690;DHT22;9782;52.930;15.562;2023-03-21T15:41:28;13.00;3.50
18690;DHT22;9782;52.930;15.562;2023-03-21T15:44:02;13.00;16.30
18690;DHT22;9782;52.930;15.562;2023-03-21T15:46:38;13.10;1.00
18690;DHT22;9782;52.930;15.562;2023-03-21T15:49:07;13.10;1.00
18690;DHT22;9782;52.930;15.562;2023-03-21T15:51:34;13.00;1.00
18690;DHT22;9782;52.930;15.562;2023-03-21T15:54:01;13.00;1.00
18690;DHT22;9782;52.930;15.562;2023-03-21T15:56:32;12.90;1.00
18690;DHT22;9782;52.930;15.562;2023-03-21T15:59:00;12.90;1.00
18690;DHT22;9782;52.930;15.562;2023-03-21T16:01:30;12.80;36.70
18690;DHT22;9782;52.930;15.562;2023-03-21T16:04:05;12.70;57.00
18690;DHT22;9782;52.930;15.562;2023-03-21T16:06:34;12.70;71.50
18690;DHT22;9782;52.930;15.562;2023-03-21T16:09:09;12.60;76.40
18690;DHT22;9782;52.930;15.562;2023-03-21T16:11:40;12.60;93.80
18690;DHT22;9782;52.930;15.562;2023-03-21T16:14:07;12.50;99.90
18690;DHT22;9782;52.930;15.562;2023-03-21T16:16:35;12.40;99.90
18690;DHT22;9782;52.930;15.562;2023-03-21T16:19:03;12.40;99.90
18690;DHT22;9782;52.930;15.562;2023-03-21T16:21:32;12.40;99.90
18690;DHT22;9782;52.930;15.562;2023-03-21T16:24:02;12.30;99.90
18690;DHT22;9782;52.930;15.562;2023-03-21T16:26:31;12.30;99.90
18690;DHT22;9782;52.930;15.562;2023-03-21T16:28:58;12.40;99.90
18690;DHT22;9782;52.930;15.562;2023-03-21T16:31:27;12.30;99.90
18690;DHT22;9782;52.930;15.562;2023-03-21T16:33:54;12.30;99.90
18690;DHT22;9782;52.930;15.562;2023-03-21T16:36:24;12.30;99.90
18690;DHT22;9782;52.930;15.562;2023-03-21T16:38:52;12.30;99.90
18690;DHT22;9782;52.930;15.562;2023-03-21T16:41:20;12.20;99.90
18690;DHT22;9782;52.930;15.562;2023-03-21T16:43:47;12.20;99.90
18690;DHT22;9782;52.930;15.562;2023-03-21T16:46:16;12.20;99.90
18690;DHT22;9782;52.930;15.562;2023-03-21T16:48:45;12.10;99.90
18690;DHT22;9782;52.930;15.562;2023-03-21T16:51:13;12.10;99.90
18690;DHT22;9782;52.930;15.562;2023-03-21T16:53:42;12.10;99.90
18690;DHT22;9782;52.930;15.562;2023-03-21T16:56:13;12.00;99.90
18690;DHT22;9782;52.930;15.562;2023-03-21T16:58:40;12.00;1.00
18690;DHT22;9782;52.930;15.562;2023-03-21T17:01:11;11.90;1.00
18690;DHT22;9782;52.930;15.562;2023-03-21T17:03:38;11.90;1.00
18690;DHT22;9782;52.930;15.562;2023-03-21T17:06:08;11.90;1.00
18690;DHT22;9782;52.930;15.562;2023-03-21T17:08:38;11.80;1.00
18690;DHT22;9782;52.930;15.562;2023-03-21T17:11:08;11.70;1.00
18690;DHT22;9782;52.930;15.562;2023-03-21T17:16:11;11.70;1.00
18690;DHT22;9782;52.930;15.562;2023-03-21T17:18:38;11.70;1.00
18690;DHT22;9782;52.930;15.562;2023-03-21T17:26:20;11.60;1.00
18690;DHT22;9782;52.930;15.562;2023-03-21T17:28:50;11.60;1.00
18690;DHT22;9782;52.930;15.562;2023-03-21T17:31:19;11.60;1.00
18690;DHT22;9782;52.930;15.562;2023-03-21T17:33:47;11.60;1.00
18690;DHT22;9782;52.930;15.562;2023-03-21T17:38:49;11.50;1.00
18690;DHT22;9782;52.930;15.562;2023-03-21T17:56:50;11.20;1.00
18690;DHT22;9782;52.930;15.562;2023-03-21T18:07:07;11.00;99.90
18690;DHT22;9782;52.930;15.562;2023-03-21T20:23:05;10.60;1.00
18690;DHT22;9782;52.930;15.562;2023-03-21T20:25:32;10.60;1.00
18690;DHT22;9782;52.930;15.562;2023-03-21T20:27:59;10.60;1.00
18690;DHT22;9782;52.930;15.562;2023-03-21T20:30:26;10.60;1.00
18690;DHT22;9782;52.930;15.562;2023-03-21T20:32:53;10.60;1.00
18690;DHT22;9782;52.930;15.562;2023-03-21T20:35:20;10.60;1.00
18690;DHT22;9782;52.930;15.562;2023-03-21T20:37:46;10.50;22.30
18690;DHT22;9782;52.930;15.562;2023-03-21T20:40:16;10.60;65.20
18690;DHT22;9782;52.930;15.562;2023-03-21T20:42:43;10.60;99.90
18690;DHT22;9782;52.930;15.562;2023-03-21T20:45:13;10.60;99.20
18690;DHT22;9782;52.930;15.562;2023-03-21T20:47:40;10.60;99.90
18690;DHT22;9782;52.930;15.562;2023-03-21T20:50:10;10.60;87.10
18690;DHT22;9782;52.930;15.562;2023-03-21T20:52:37;10.70;95.80
18690;DHT22;9782;52.930;15.562;2023-03-21T20:55:04;10.70;93.50
18690;DHT22;9782;52.930;15.562;2023-03-21T20:57:34;10.70;99.90
18690;DHT22;9782;52.930;15.562;2023-03-21T21:00:01;10.70;99.90
18690;DHT22;9782;52.930;15.562;2023-03-21T21:02:33;10.70;99.90
18690;DHT22;9782;52.930;15.562;2023-03-21T21:05:00;10.70;99.90
18690;DHT22;9782;52.930;15.562;2023-03-21T21:07:27;10.70;99.90
18690;DHT22;9782;52.930;15.562;2023-03-21T21:09:54;10.70;99.90
18690;DHT22;9782;52.930;15.562;2023-03-21T21:12:23;10.70;99.90
18690;DHT22;9782;52.930;15.562;2023-03-21T21:14:53;10.70;99.90
18690;DHT22;9782;52.930;15.562;2023-03-21T21:17:20;10.70;99.90
18690;DHT22;9782;52.930;15.562;2023-03-21T21:19:47;10.70;99.90
18690;DHT22;9782;52.930;15.562;2023-03-21T21:22:15;10.70;99.90
18690;DHT22;9782;52.930;15.562;2023-03-21T21:24:42;10.70;99.90
18690;DHT22;9782;52.930;15.562;2023-03-21T21:27:09;10.70;99.90
18690;DHT22;9782;52.930;15.562;2023-03-21T21:29:36;10.70;99.90
18690;DHT22;9782;52.930;15.562;2023-03-21T21:32:04;10.70;99.90
18690;DHT22;9782;52.930;15.562;2023-03-21T21:34:31;10.70;99.90
18690;DHT22;9782;52.930;15.562;2023-03-21T21:36:58;10.70;99.90
18690;DHT22;9782;52.930;15.562;2023-03-21T21:39:24;10.70;99.90
18690;DHT22;9782;52.930;15.562;2023-03-21T21:41:52;10.70;99.90
18690;DHT22;9782;52.930;15.562;2023-03-21T21:44:19;10.70;99.90
18690;DHT22;9782;52.930;15.562;2023-03-21T21:46:46;10.70;99.90
18690;DHT22;9782;52.930;15.562;2023-03-21T21:49:14;10.70;99.90
18690;DHT22;9782;52.930;15.562;2023-03-21T21:51:41;10.70;99.90
18690;DHT22;9782;52.930;15.562;2023-03-21T21:54:07;10.70;1.00
18690;DHT22;9782;52.930;15.562;2023-03-21T21:56:35;10.60;1.00
18690;DHT22;9782;52.930;15.562;2023-03-21T21:59:02;10.60;1.00
18690;DHT22;9782;52.930;15.562;2023-03-21T22:01:29;10.60;1.00
18690;DHT22;9782;52.930;15.562;2023-03-21T22:03:59;10.60;1.00
18690;DHT22;9782;52.930;15.562;2023-03-21T22:06:32;10.60;1.00
18690;DHT22;9782;52.930;15.562;2023-03-21T22:08:59;10.60;1.00
18690;DHT22;9782;52.930;15.562;2023-03-21T22:11:28;10.60;1.00
18690;DHT22;9782;52.930;15.562;2023-03-21T22:13:55;10.60;1.00
18690;DHT22;9782;52.930;15.562;2023-03-21T22:16:21;10.60;1.00
18690;DHT22;9782;52.930;15.562;2023-03-21T22:18:48;10.60;1.00
18690;DHT22;9782;52.930;15.562;2023-03-21T22:21:15;10.60;1.00
18690;DHT22;9782;52.930;15.562;2023-03-21T22:23:43;10.60;1.00
18690;DHT22;9782;52.930;15.562;2023-03-21T22:26:10;10.60;1.00
18690;DHT22;9782;52.930;15.562;2023-03-21T22:28:36;10.60;1.00
18690;DHT22;9782;52.930;15.562;2023-03-21T22:31:09;10.60;1.00
18690;DHT22;9782;52.930;15.562;2023-03-21T22:33:36;10.70;1.00
18690;DHT22;9782;52.930;15.562;2023-03-21T22:36:03;10.70;1.00
18690;DHT22;9782;52.930;15.562;2023-03-21T22:38:30;10.70;1.00
18690;DHT22;9782;52.930;15.562;2023-03-21T22:41:01;10.60;1.00
18690;DHT22;9782;52.930;15.562;2023-03-21T22:43:28;10.70;1.00
18690;DHT22;9782;52.930;15.562;2023-03-21T22:45:58;10.70;1.00
18690;DHT22;9782;52.930;15.562;2023-03-21T22:48:25;10.70;1.00
18690;DHT22;9782;52.930;15.562;2023-03-21T22:50:54;10.70;1.00
18690;DHT22;9782;52.930;15.562;2023-03-21T22:53:21;10.70;1.00
18690;DHT22;9782;52.930;15.562;2023-03-21T22:55:48;10.70;1.00
18690;DHT22;9782;52.930;15.562;2023-03-21T22:58:16;10.70;1.00
18690;DHT22;9782;52.930;15.562;2023-03-21T23:00:43;10.70;1.00
18690;DHT22;9782;52.930;15.562;2023-03-21T23:03:10;10.70;1.00
18690;DHT22;9782;52.930;15.562;2023-03-21T23:05:38;10.70;1.00
18690;DHT22;9782;52.930;15.562;2023-03-21T23:08:05;10.70;20.60
18690;DHT22;9782;52.930;15.562;2023-03-21T23:10:32;10.70;45.30
18690;DHT22;9782;52.930;15.562;2023-03-21T23:12:59;10.70;97.90
18690;DHT22;9782;52.930;15.562;2023-03-21T23:15:27;10.70;99.90
18690;DHT22;9782;52.930;15.562;2023-03-21T23:17:54;10.70;99.90
18690;DHT22;9782;52.930;15.562;2023-03-21T23:20:20;10.60;99.90
18690;DHT22;9782;52.930;15.562;2023-03-21T23:22:47;10.60;99.90
18690;DHT22;9782;52.930;15.562;2023-03-21T23:25:14;10.60;99.90
18690;DHT22;9782;52.930;15.562;2023-03-21T23:27:41;10.60;99.90
18690;DHT22;9782;52.930;15.562;2023-03-21T23:30:08;10.60;99.90
18690;DHT22;9782;52.930;15.562;2023-03-21T23:32:36;10.60;1.00
18690;DHT22;9782;52.930;15.562;2023-03-21T23:35:04;10.50;1.00
18690;DHT22;9782;52.930;15.562;2023-03-21T23:37:31;10.50;1.00
18690;DHT22;9782;52.930;15.562;2023-03-21T23:39:57;10.50;1.00
18690;DHT22;9782;52.930;15.562;2023-03-21T23:42:24;10.50;1.00
18690;DHT22;9782;52.930;15.562;2023-03-21T23:44:54;10.50;1.00
18690;DHT22;9782;52.930;15.562;2023-03-21T23:47:21;10.40;1.00
18690;DHT22;9782;52.930;15.562;2023-03-21T23:49:49;10.40;1.00
18690;DHT22;9782;52.930;15.562;2023-03-21T23:52:17;10.40;1.00
18690;DHT22;9782;52.930;15.562;2023-03-21T23:54:44;10.40;1.00
18690;DHT22;9782;52.930;15.562;2023-03-21T23:57:11;10.30;50.10
18690;DHT22;9782;52.930;15.562;2023-03-21T23:59:38;10.30;99.90
